Time;durP1;ratioP1;P1;durP2;ratioP2;P2;SDS_P1;SDS_P2;PMS_P1;PMS_P2;Temp;Humidity;BMP_temperature;BMP_pressure;BME280_temperature;BME280_humidity;BME280_pressure;Samples;Min_cycle;Max_cycle;Signal;HPM_P1;HPM_P2
2022/08/15 00:01:20;;;;;;;8.13;3.78;;;23.90;79.90;;;;;;5048859;28;20032;-75
2022/08/15 00:04:08;;;;;;;8.55;4.13;;;23.80;80.00;;;;;;5030888;28;20047;-75
2022/08/15 00:06:41;;;;;;;7.10;3.55;;;23.90;80.20;;;;;;5050772;28;20035;-75
2022/08/15 00:09:19;;;;;;;7.18;4.40;;;23.70;80.30;;;;;;5013895;28;20033;-75
2022/08/15 00:11:49;;;;;;;11.02;4.53;;;23.80;80.30;;;;;;5051435;28;20087;-74
2022/08/15 00:14:21;;;;;;;7.07;3.92;;;23.70;80.30;;;;;;5037955;28;20039;-75
2022/08/15 00:16:48;;;;;;;11.50;4.00;;;23.70;80.60;;;;;;5032420;28;20166;-74
2022/08/15 00:19:26;;;;;;;8.75;4.22;;;23.70;80.70;;;;;;5031511;28;20025;-76
2022/08/15 00:21:54;;;;;;;5.53;3.95;;;23.70;80.60;;;;;;5057663;28;20028;-74
2022/08/15 00:24:26;;;;;;;12.38;4.35;;;23.70;80.90;;;;;;5050598;28;20031;-75
2022/08/15 00:26:55;;;;;;;7.57;4.22;;;23.70;80.70;;;;;;5032113;28;20036;-75
2022/08/15 00:29:23;;;;;;;5.50;3.88;;;23.70;81.10;;;;;;5048797;28;20031;-74
2022/08/15 00:31:53;;;;;;;4.90;3.53;;;23.70;81.00;;;;;;5030396;28;20044;-75
2022/08/15 00:34:21;;;;;;;16.60;4.43;;;23.70;81.10;;;;;;5049993;28;20384;-76
2022/08/15 00:36:48;;;;;;;7.65;4.00;;;23.70;81.40;;;;;;5031249;28;20595;-75
2022/08/15 00:39:15;;;;;;;7.32;3.90;;;23.70;81.30;;;;;;5049974;28;20484;-75
2022/08/15 00:41:42;;;;;;;9.13;3.70;;;23.70;81.20;;;;;;5033025;28;20068;-75
2022/08/15 00:44:13;;;;;;;6.95;3.90;;;23.60;81.30;;;;;;5046215;28;20049;-74
2022/08/15 00:46:48;;;;;;;5.45;3.72;;;23.70;81.40;;;;;;5010147;28;20028;-76
2022/08/15 00:49:14;;;;;;;11.88;4.65;;;23.60;81.50;;;;;;5029571;28;20083;-75
2022/08/15 00:51:50;;;;;;;6.70;3.90;;;23.60;81.70;;;;;;5047926;28;20040;-76
2022/08/15 00:54:24;;;;;;;5.13;4.05;;;23.50;82.00;;;;;;5046684;28;20049;-76
2022/08/15 00:56:54;;;;;;;7.80;4.45;;;23.50;82.20;;;;;;5031364;28;20588;-75
2022/08/15 00:59:26;;;;;;;9.60;4.00;;;23.50;82.50;;;;;;5047264;28;20024;-76
2022/08/15 01:01:53;;;;;;;8.32;4.00;;;23.50;82.30;;;;;;5027838;28;20024;-75
2022/08/15 01:04:19;;;;;;;7.75;4.00;;;23.40;82.10;;;;;;5048417;28;20028;-75
2022/08/15 01:06:47;;;;;;;5.97;3.97;;;23.40;82.30;;;;;;5049770;28;20025;-75
2022/08/15 01:09:15;;;;;;;7.78;3.72;;;23.50;82.40;;;;;;5031008;28;20041;-75
2022/08/15 01:11:47;;;;;;;5.15;3.55;;;23.40;82.80;;;;;;5030046;28;20390;-74
2022/08/15 01:14:13;;;;;;;6.47;3.88;;;23.40;83.00;;;;;;5047438;28;20029;-74
2022/08/15 01:16:39;;;;;;;7.55;3.53;;;23.30;83.00;;;;;;5048384;28;20037;-74
2022/08/15 01:19:28;;;;;;;7.30;3.80;;;23.30;83.30;;;;;;5046552;28;20116;-75
2022/08/15 01:22:13;;;;;;;8.55;4.20;;;23.20;83.60;;;;;;5031355;28;20028;-75
2022/08/15 01:25:02;;;;;;;10.45;3.95;;;23.10;83.90;;;;;;5050006;28;20033;-75
2022/08/15 01:27:32;;;;;;;5.57;3.80;;;23.10;83.90;;;;;;5047190;28;20036;-73
2022/08/15 01:29:59;;;;;;;7.20;3.72;;;23.10;84.00;;;;;;5017334;28;20496;-76
2022/08/15 01:32:25;;;;;;;7.05;4.38;;;23.10;84.00;;;;;;5030672;28;20036;-74
2022/08/15 01:34:51;;;;;;;8.80;3.63;;;23.10;84.40;;;;;;5029967;28;20073;-74
2022/08/15 01:37:17;;;;;;;6.53;3.70;;;23.00;84.40;;;;;;5012507;28;20334;-75
2022/08/15 01:39:54;;;;;;;6.50;4.25;;;23.00;84.50;;;;;;5030099;28;20033;-75
2022/08/15 01:42:30;;;;;;;5.00;3.75;;;23.00;84.70;;;;;;5025354;28;20032;-74
2022/08/15 01:45:07;;;;;;;7.63;4.00;;;23.00;84.80;;;;;;5028783;28;20135;-75
2022/08/15 01:47:36;;;;;;;7.25;3.88;;;23.00;84.60;;;;;;5048466;28;20472;-76
2022/08/15 01:50:27;;;;;;;8.02;4.05;;;23.00;84.80;;;;;;5029217;28;20061;-75
2022/08/15 01:52:55;;;;;;;7.05;3.45;;;23.00;85.10;;;;;;5029126;28;20032;-75
2022/08/15 01:55:26;;;;;;;7.97;3.72;;;23.00;85.10;;;;;;5031279;28;20162;-75
2022/08/15 01:57:52;;;;;;;;;;;22.90;85.30;;;;;;5044459;28;20036;-75
2022/08/15 02:00:20;;;;;;;6.00;3.67;;;22.90;85.10;;;;;;5045915;28;19917;-74
2022/08/15 02:02:46;;;;;;;4.70;3.50;;;22.90;85.70;;;;;;5026697;28;20025;-74
2022/08/15 02:05:13;;;;;;;5.47;3.47;;;22.90;85.60;;;;;;5049213;28;20021;-74
2022/08/15 02:07:38;;;;;;;5.07;3.67;;;22.90;85.90;;;;;;5028667;28;20028;-76
2022/08/15 02:10:06;;;;;;;5.72;3.80;;;22.90;86.00;;;;;;5047465;28;20491;-75
2022/08/15 02:12:35;;;;;;;6.03;3.70;;;22.90;86.10;;;;;;5046093;28;20032;-74
2022/08/15 02:15:09;;;;;;;4.50;3.42;;;22.80;86.30;;;;;;5042391;28;20021;-75
2022/08/15 02:17:35;;;;;;;5.05;3.67;;;22.80;86.30;;;;;;5027182;28;20044;-74
2022/08/15 02:20:02;;;;;;;7.50;3.35;;;22.80;86.40;;;;;;5046402;28;20433;-75
2022/08/15 02:22:28;;;;;;;7.22;3.83;;;22.80;86.60;;;;;;5029430;28;20448;-76
2022/08/15 02:24:55;;;;;;;6.10;3.40;;;22.70;86.70;;;;;;5047594;28;20090;-74
2022/08/15 02:27:21;;;;;;;6.97;3.75;;;22.70;87.00;;;;;;5027291;28;20458;-76
2022/08/15 02:29:46;;;;;;;4.90;3.58;;;22.70;87.00;;;;;;5045294;28;20038;-75
2022/08/15 02:32:15;;;;;;;6.18;3.40;;;22.60;87.20;;;;;;5046836;28;20047;-76
2022/08/15 02:34:44;;;;;;;5.22;3.50;;;22.60;87.60;;;;;;5029920;28;20095;-74
2022/08/15 02:37:11;;;;;;;5.78;3.50;;;22.60;87.60;;;;;;5042875;28;20485;-75
2022/08/15 02:39:39;;;;;;;8.82;3.72;;;22.50;88.00;;;;;;5029581;28;20148;-74
2022/08/15 02:42:04;;;;;;;5.85;3.40;;;22.50;88.20;;;;;;5045399;28;20040;-75
2022/08/15 02:44:30;;;;;;;10.38;3.70;;;22.50;88.60;;;;;;5028377;28;20032;-75
2022/08/15 02:46:56;;;;;;;7.25;3.50;;;22.50;88.50;;;;;;5027763;28;20033;-75
2022/08/15 02:49:24;;;;;;;7.38;3.65;;;22.50;88.50;;;;;;5028987;28;20548;-75
2022/08/15 02:51:50;;;;;;;6.93;3.50;;;22.50;88.60;;;;;;5013584;28;20040;-75
2022/08/15 02:54:19;;;;;;;10.43;3.38;;;22.50;89.00;;;;;;5047436;28;20108;-75
2022/08/15 02:56:44;;;;;;;5.05;3.30;;;22.40;89.00;;;;;;5029618;28;20041;-75
2022/08/15 02:59:11;;;;;;;10.52;3.72;;;22.40;88.90;;;;;;5048649;28;20090;-74
2022/08/15 03:01:40;;;;;;;6.20;3.97;;;22.40;89.10;;;;;;5045596;28;20032;-75
2022/08/15 03:04:17;;;;;;;4.80;3.35;;;22.40;89.20;;;;;;5012395;28;20436;-75
2022/08/15 03:06:44;;;;;;;7.07;3.28;;;22.30;89.10;;;;;;5046353;28;20033;-74
2022/08/15 03:09:12;;;;;;;5.50;3.33;;;22.30;90.10;;;;;;5028553;28;20033;-75
2022/08/15 03:11:39;;;;;;;6.15;3.50;;;22.30;90.00;;;;;;5047145;28;20082;-73
2022/08/15 03:14:11;;;;;;;6.38;3.80;;;22.30;89.90;;;;;;5032681;28;20120;-77
2022/08/15 03:16:42;;;;;;;4.95;3.25;;;22.30;90.10;;;;;;5033395;28;20433;-78
2022/08/15 03:19:08;;;;;;;6.57;3.50;;;22.20;90.10;;;;;;5063950;28;20123;-75
2022/08/15 03:21:36;;;;;;;8.13;3.65;;;22.20;90.20;;;;;;5050916;28;20108;-74
2022/08/15 03:24:02;;;;;;;7.63;3.33;;;22.20;90.40;;;;;;5033815;28;20040;-76
2022/08/15 03:26:29;;;;;;;6.55;3.35;;;22.20;90.30;;;;;;5035859;28;20027;-75
2022/08/15 03:28:55;;;;;;;10.20;3.70;;;22.20;90.30;;;;;;5033942;28;20098;-76
2022/08/15 03:31:21;;;;;;;4.43;3.17;;;22.20;90.50;;;;;;5049875;28;20068;-76
2022/08/15 03:33:47;;;;;;;6.72;3.58;;;22.10;90.30;;;;;;5034073;28;20493;-75
2022/08/15 03:36:18;;;;;;;9.90;3.70;;;22.10;90.70;;;;;;5033113;28;20033;-76
2022/08/15 03:38:45;;;;;;;6.28;3.65;;;22.00;90.70;;;;;;5032357;28;20406;-75
2022/08/15 03:41:13;;;;;;;6.93;3.35;;;22.00;90.90;;;;;;5031907;28;20373;-75
2022/08/15 03:43:41;;;;;;;6.70;3.63;;;22.00;90.80;;;;;;5034673;28;20400;-75
2022/08/15 03:46:10;;;;;;;7.97;3.65;;;21.90;91.00;;;;;;5031184;28;20033;-75
2022/08/15 03:48:44;;;;;;;4.70;3.60;;;21.90;90.80;;;;;;5050664;28;20033;-76
2022/08/15 03:51:11;;;;;;;6.65;3.95;;;21.90;91.10;;;;;;5050031;28;20131;-77
2022/08/15 03:53:44;;;;;;;5.05;4.07;;;21.90;91.10;;;;;;5051348;28;20060;-76
2022/08/15 03:56:14;;;;;;;5.75;3.45;;;21.90;91.20;;;;;;5048470;28;20484;-76
2022/08/15 03:58:40;;;;;;;5.75;3.78;;;21.90;91.20;;;;;;5031570;28;20040;-76
2022/08/15 04:01:11;;;;;;;11.45;3.95;;;21.80;91.20;;;;;;5015997;28;20044;-76
2022/08/15 04:03:38;;;;;;;8.27;4.20;;;21.90;91.50;;;;;;5032682;28;20089;-77
2022/08/15 04:06:06;;;;;;;5.90;4.00;;;21.80;91.40;;;;;;5029527;28;20098;-76
2022/08/15 04:08:32;;;;;;;7.55;4.05;;;21.80;91.50;;;;;;5049228;28;20036;-75
2022/08/15 04:11:01;;;;;;;6.95;4.13;;;21.80;91.40;;;;;;5050089;28;20341;-75
2022/08/15 04:13:28;;;;;;;4.90;3.88;;;21.80;91.40;;;;;;5048151;28;20044;-76
2022/08/15 04:15:56;;;;;;;8.27;3.95;;;21.90;91.40;;;;;;5030303;28;20039;-73
2022/08/15 04:18:24;;;;;;;6.53;4.40;;;21.90;91.50;;;;;;5048871;28;20040;-76
2022/08/15 04:20:54;;;;;;;5.25;3.90;;;21.90;91.50;;;;;;5017862;28;20029;-75
2022/08/15 04:23:20;;;;;;;7.90;4.00;;;21.90;91.50;;;;;;5014203;28;20158;-75
2022/08/15 04:25:45;;;;;;;6.68;4.13;;;21.80;91.50;;;;;;5031452;28;20658;-75
2022/08/15 04:28:18;;;;;;;6.35;4.18;;;21.80;91.50;;;;;;5030284;28;20032;-73
2022/08/15 04:30:47;;;;;;;5.75;3.92;;;21.90;91.50;;;;;;5048868;28;20025;-75
2022/08/15 04:33:16;;;;;;;8.95;4.25;;;21.80;91.80;;;;;;5049776;28;20044;-75
2022/08/15 04:35:46;;;;;;;10.85;4.43;;;21.80;91.70;;;;;;5051053;28;20037;-76
2022/08/15 04:38:13;;;;;;;8.60;4.50;;;21.80;91.80;;;;;;5031141;28;20032;-75
2022/08/15 04:40:39;;;;;;;7.78;4.30;;;21.90;91.90;;;;;;5014357;28;20515;-74
2022/08/15 04:43:05;;;;;;;8.45;4.30;;;21.80;91.80;;;;;;5042901;28;20036;-76
2022/08/15 04:45:33;;;;;;;6.30;4.55;;;21.90;91.80;;;;;;5040510;28;20041;-76
2022/08/15 04:48:02;;;;;;;5.97;4.57;;;21.90;91.80;;;;;;5046877;28;20025;-76
2022/08/15 04:50:30;;;;;;;8.98;4.57;;;21.90;91.80;;;;;;5033266;28;20059;-75
2022/08/15 04:52:57;;;;;;;6.47;4.18;;;22.00;91.90;;;;;;5030747;28;20029;-77
2022/08/15 04:55:24;;;;;;;8.10;4.00;;;22.00;92.00;;;;;;5036993;28;20032;-75
2022/08/15 04:57:52;;;;;;;6.55;4.00;;;22.00;92.10;;;;;;5018303;28;20033;-75
2022/08/15 05:00:21;;;;;;;7.68;4.03;;;22.00;91.80;;;;;;5049884;28;20036;-76
2022/08/15 05:02:57;;;;;;;7.32;4.50;;;22.00;91.90;;;;;;5049909;28;20032;-75
2022/08/15 05:05:23;;;;;;;9.45;4.05;;;22.00;91.90;;;;;;5047235;28;20461;-76
2022/08/15 05:07:49;;;;;;;8.38;4.57;;;22.00;92.00;;;;;;5031152;28;20036;-76
2022/08/15 05:10:16;;;;;;;11.95;4.68;;;22.00;92.00;;;;;;5050091;28;20905;-76
2022/08/15 05:12:42;;;;;;;6.20;3.97;;;22.00;92.00;;;;;;5048671;28;20056;-76
2022/08/15 05:15:10;;;;;;;7.45;4.50;;;22.00;92.20;;;;;;5046649;28;20033;-75
2022/08/15 05:17:36;;;;;;;7.07;4.40;;;21.90;92.30;;;;;;5046052;28;20118;-76
2022/08/15 05:20:02;;;;;;;6.28;4.15;;;21.90;92.20;;;;;;5029496;28;20053;-75
2022/08/15 05:22:27;;;;;;;7.43;4.80;;;22.00;92.10;;;;;;5027031;28;20095;-74
2022/08/15 05:24:53;;;;;;;5.60;4.28;;;22.00;92.10;;;;;;5043286;28;20025;-76
2022/08/15 05:27:19;;;;;;;6.78;4.30;;;22.00;92.20;;;;;;5044252;28;20029;-77
2022/08/15 05:29:44;;;;;;;5.78;3.58;;;22.00;92.10;;;;;;5049411;28;20029;-77
2022/08/15 05:32:11;;;;;;;6.13;4.35;;;22.10;92.60;;;;;;5047109;28;20113;-76
2022/08/15 05:34:36;;;;;;;5.93;4.25;;;22.20;92.30;;;;;;5029658;28;20036;-76
2022/08/15 05:37:03;;;;;;;4.95;3.50;;;22.20;92.70;;;;;;5027371;28;20050;-75
2022/08/15 05:39:31;;;;;;;5.43;3.53;;;22.30;92.50;;;;;;5045368;28;20192;-73
2022/08/15 05:42:25;;;;;;;5.38;3.85;;;22.40;92.40;;;;;;5010411;28;20488;-72
2022/08/15 05:45:06;;;;;;;6.18;4.00;;;22.50;92.40;;;;;;5030322;28;20456;-73
2022/08/15 05:47:35;;;;;;;;;;;22.60;92.30;;;;;;5047719;28;20454;-73
2022/08/15 05:50:06;;;;;;;6.63;4.78;;;22.50;92.00;;;;;;5028913;28;20279;-71
2022/08/15 05:52:49;;;;;;;8.93;4.63;;;22.40;92.20;;;;;;5046206;28;20029;-70
2022/08/15 05:55:26;;;;;;;7.68;4.95;;;22.40;92.30;;;;;;5044548;28;20044;-73
2022/08/15 05:58:17;;;;;;;11.88;5.22;;;22.40;92.50;;;;;;5046970;28;20132;-70
2022/08/15 06:00:49;;;;;;;7.47;5.10;;;22.40;92.50;;;;;;5046670;28;20110;-70
2022/08/15 06:03:24;;;;;;;6.47;5.07;;;22.50;92.50;;;;;;5046912;28;20040;-69
2022/08/15 06:05:59;;;;;;;7.68;4.85;;;22.40;92.50;;;;;;5046732;28;20029;-73
2022/08/15 06:08:33;;;;;;;9.75;5.80;;;22.40;92.50;;;;;;5046131;28;20028;-72
2022/08/15 06:11:26;;;;;;;12.15;5.95;;;22.50;92.50;;;;;;5045463;28;20048;-73
2022/08/15 06:14:09;;;;;;;11.05;5.65;;;22.50;92.70;;;;;;5026720;28;20037;-71
2022/08/15 06:16:45;;;;;;;14.93;8.27;;;22.50;92.40;;;;;;5049202;28;20125;-73
2022/08/15 06:19:33;;;;;;;11.35;7.15;;;22.60;92.50;;;;;;5049586;28;20439;-73
2022/08/15 06:22:27;;;;;;;13.25;7.63;;;22.60;92.50;;;;;;5046196;28;20017;-73
2022/08/15 06:25:42;;;;;;;9.73;6.00;;;22.60;92.50;;;;;;5045768;28;20038;-73
2022/08/15 06:28:28;;;;;;;10.32;5.60;;;22.80;92.60;;;;;;4963027;28;20495;-72
2022/08/15 06:31:05;;;;;;;8.60;6.35;;;22.70;92.50;;;;;;5041817;28;20037;-72
2022/08/15 06:33:50;;;;;;;8.40;6.32;;;22.80;92.40;;;;;;5029441;28;20106;-72
2022/08/15 06:36:30;;;;;;;13.20;5.95;;;22.90;92.40;;;;;;5048465;28;20029;-73
2022/08/15 06:39:02;;;;;;;7.07;5.55;;;23.00;92.50;;;;;;5045305;28;20099;-75
2022/08/15 06:41:42;;;;;;;11.27;6.40;;;23.00;92.20;;;;;;5023288;28;20888;-76
2022/08/15 06:44:10;;;;;;;8.65;6.25;;;23.10;92.30;;;;;;5047484;28;20029;-76
2022/08/15 06:46:38;;;;;;;10.13;6.20;;;23.10;92.20;;;;;;5028108;28;20114;-71
2022/08/15 06:49:10;;;;;;;10.60;6.22;;;23.10;92.20;;;;;;5030172;28;20024;-74
2022/08/15 06:51:38;;;;;;;11.45;6.47;;;23.20;92.00;;;;;;5014379;28;20728;-73
2022/08/15 06:54:08;;;;;;;11.98;7.25;;;23.30;91.90;;;;;;5032400;28;20119;-76
2022/08/15 06:56:34;;;;;;;11.38;6.70;;;23.30;92.00;;;;;;5023324;28;20124;-76
2022/08/15 06:59:26;;;;;;;12.45;7.03;;;23.30;91.80;;;;;;5044711;28;20119;-75
2022/08/15 07:01:55;;;;;;;9.85;6.47;;;23.40;91.70;;;;;;5042519;28;20408;-76
2022/08/15 07:04:45;;;;;;;12.68;6.95;;;23.50;91.70;;;;;;5048522;28;20029;-74
2022/08/15 07:07:27;;;;;;;14.95;7.38;;;23.50;91.50;;;;;;5020962;28;20108;-76
2022/08/15 07:10:00;;;;;;;12.05;7.30;;;23.60;91.50;;;;;;5042269;28;20033;-76
2022/08/15 07:12:32;;;;;;;11.68;6.85;;;23.60;91.60;;;;;;5033840;28;20024;-74
2022/08/15 07:15:16;;;;;;;10.65;7.43;;;23.70;91.50;;;;;;5049702;28;20036;-76
2022/08/15 07:18:00;;;;;;;9.70;7.00;;;23.70;91.70;;;;;;5047704;28;20037;-76
2022/08/15 07:20:26;;;;;;;15.20;7.18;;;23.80;91.60;;;;;;5050649;28;20081;-76
2022/08/15 07:22:52;;;;;;;11.20;6.95;;;23.80;91.80;;;;;;5008122;28;20471;-76
2022/08/15 07:25:25;;;;;;;11.50;7.28;;;23.90;91.60;;;;;;5027861;28;20021;-74
2022/08/15 07:28:01;;;;;;;9.00;7.18;;;23.90;91.70;;;;;;5050716;28;20037;-76
2022/08/15 07:30:44;;;;;;;10.35;7.22;;;24.00;91.30;;;;;;5029717;28;20029;-76
2022/08/15 07:33:39;;;;;;;11.68;7.95;;;24.10;91.40;;;;;;5029494;28;20099;-76
2022/08/15 07:36:15;;;;;;;12.50;7.50;;;24.20;90.90;;;;;;5029859;28;20040;-76
2022/08/15 07:38:41;;;;;;;11.77;7.50;;;24.20;91.10;;;;;;5027544;28;20044;-74
2022/08/15 07:41:20;;;;;;;13.57;7.30;;;24.30;91.20;;;;;;5024475;28;20021;-75
2022/08/15 07:43:46;;;;;;;15.43;7.95;;;24.30;91.10;;;;;;5046905;28;20032;-75
2022/08/15 07:46:34;;;;;;;10.25;7.47;;;24.40;91.00;;;;;;5049234;28;20025;-75
2022/08/15 07:49:07;;;;;;;11.68;7.43;;;24.40;91.00;;;;;;5015845;28;20032;-76
2022/08/15 07:51:42;;;;;;;8.55;6.93;;;24.50;91.00;;;;;;5032352;28;20028;-76
2022/08/15 07:54:43;;;;;;;10.35;7.28;;;24.60;90.90;;;;;;5029971;28;20032;-74
2022/08/15 07:57:27;;;;;;;11.25;7.90;;;24.70;90.90;;;;;;5046109;28;20048;-75
2022/08/15 08:00:28;;;;;;;9.77;7.30;;;24.70;90.70;;;;;;5045899;28;20496;-75
2022/08/15 08:03:08;;;;;;;11.83;7.37;;;24.80;90.40;;;;;;5033257;28;20033;-76
2022/08/15 08:05:47;;;;;;;11.25;6.97;;;24.80;90.30;;;;;;5025677;28;20286;-76
2022/08/15 08:08:13;;;;;;;9.25;7.75;;;24.90;90.50;;;;;;5047706;28;20021;-78
2022/08/15 08:10:42;;;;;;;8.13;7.32;;;25.00;90.30;;;;;;5030732;28;20512;-76
2022/08/15 08:13:54;;;;;;;11.75;8.10;;;25.10;90.30;;;;;;5018619;28;20060;-77
2022/08/15 08:16:34;;;;;;;9.85;8.13;;;25.20;90.10;;;;;;5051627;28;20094;-77
2022/08/15 08:19:24;;;;;;;10.93;7.03;;;25.20;90.10;;;;;;5033444;28;20051;-76
2022/08/15 08:22:18;;;;;;;10.00;7.47;;;25.30;90.10;;;;;;5047719;28;20056;-75
2022/08/15 08:24:55;;;;;;;8.52;6.93;;;25.40;90.00;;;;;;5026808;28;20037;-75
2022/08/15 08:27:44;;;;;;;9.00;6.72;;;25.50;89.90;;;;;;5031764;28;20229;-77
2022/08/15 08:30:19;;;;;;;10.88;7.38;;;25.50;89.40;;;;;;5034081;28;20032;-78
2022/08/15 08:33:08;;;;;;;14.57;7.13;;;25.60;89.40;;;;;;5050357;28;20602;-77
2022/08/15 08:35:43;;;;;;;9.95;7.85;;;25.70;88.80;;;;;;5014407;28;20036;-76
2022/08/15 08:38:24;;;;;;;13.02;8.00;;;25.80;88.80;;;;;;5029760;28;20035;-77
2022/08/15 08:41:25;;;;;;;9.80;6.95;;;25.80;88.60;;;;;;5028272;28;20021;-77
2022/08/15 08:44:23;;;;;;;12.32;7.40;;;25.80;88.50;;;;;;5046430;28;20025;-77
2022/08/15 08:47:04;;;;;;;9.32;6.97;;;25.90;88.40;;;;;;5029598;28;20400;-77
2022/08/15 08:50:02;;;;;;;11.05;7.40;;;26.00;87.70;;;;;;5048030;28;20036;-77
2022/08/15 08:52:34;;;;;;;9.25;7.00;;;26.10;86.70;;;;;;5031973;28;20032;-77
2022/08/15 08:55:09;;;;;;;8.07;7.25;;;26.10;86.90;;;;;;5049049;28;20488;-77
2022/08/15 08:57:40;;;;;;;12.27;7.63;;;26.20;86.50;;;;;;5038156;28;20059;-77
2022/08/15 09:00:11;;;;;;;11.48;7.15;;;26.20;85.70;;;;;;5041994;28;20029;-76
2022/08/15 09:02:52;;;;;;;;;;;26.30;86.00;;;;;;5029983;28;20021;-77
2022/08/15 09:05:27;;;;;;;11.32;7.60;;;26.30;85.90;;;;;;5039004;28;19909;-77
2022/08/15 09:07:58;;;;;;;13.00;7.53;;;26.40;86.00;;;;;;5050357;28;20044;-78
2022/08/15 09:10:31;;;;;;;8.93;7.45;;;26.40;85.60;;;;;;5033049;28;20477;-76
2022/08/15 09:15:51;;;;;;;9.75;7.47;;;26.50;84.90;;;;;;5036232;28;20066;-75
2022/08/15 09:18:28;;;;;;;11.20;7.57;;;26.50;84.30;;;;;;5019379;28;20025;-77
2022/08/15 09:20:56;;;;;;;10.48;7.88;;;26.60;84.10;;;;;;5052801;28;20095;-78
2022/08/15 09:23:23;;;;;;;10.45;7.47;;;26.60;84.10;;;;;;5030313;28;20025;-76
2022/08/15 09:26:08;;;;;;;10.32;7.97;;;26.70;84.30;;;;;;5049557;28;20032;-77
2022/08/15 09:28:39;;;;;;;10.30;7.40;;;26.80;84.40;;;;;;5032832;28;20040;-77
2022/08/15 09:31:18;;;;;;;10.30;7.20;;;26.90;84.20;;;;;;5030713;28;20111;-76
2022/08/15 09:33:44;;;;;;;11.57;7.75;;;26.90;83.90;;;;;;5031351;28;20040;-77
2022/08/15 09:36:20;;;;;;;10.45;6.93;;;26.90;83.70;;;;;;5013036;28;20485;-77
2022/08/15 09:39:07;;;;;;;10.93;7.85;;;27.00;82.80;;;;;;5047891;28;20087;-77
2022/08/15 09:42:00;;;;;;;10.52;7.65;;;27.00;82.60;;;;;;5030240;28;20021;-75
2022/08/15 09:45:12;;;;;;;10.88;7.22;;;27.00;82.60;;;;;;5047110;28;20017;-77
2022/08/15 09:47:59;;;;;;;11.35;7.75;;;27.10;82.90;;;;;;5047943;28;20052;-77
2022/08/15 09:50:53;;;;;;;10.88;7.18;;;27.20;82.10;;;;;;5030646;28;20029;-77
2022/08/15 09:53:33;;;;;;;8.00;7.25;;;27.20;82.50;;;;;;5051125;28;20063;-77
2022/08/15 09:56:06;;;;;;;8.27;7.30;;;27.20;82.30;;;;;;5031341;28;20061;-79
2022/08/15 09:58:37;;;;;;;10.57;7.13;;;27.20;82.60;;;;;;5014486;28;20089;-76
2022/08/15 10:01:12;;;;;;;11.77;7.40;;;27.30;82.30;;;;;;5028838;28;20601;-78
2022/08/15 10:03:44;;;;;;;13.13;7.40;;;27.40;82.30;;;;;;5050574;28;20036;-75
2022/08/15 10:06:19;;;;;;;9.75;7.60;;;27.50;82.50;;;;;;5051635;28;20051;-77
2022/08/15 10:08:54;;;;;;;7.88;6.90;;;27.50;81.70;;;;;;5050797;28;20092;-78
2022/08/15 10:11:30;;;;;;;10.05;7.80;;;27.60;81.70;;;;;;5044452;28;20036;-78
2022/08/15 10:14:05;;;;;;;12.63;7.53;;;27.60;80.20;;;;;;5028338;28;20059;-76
2022/08/15 10:16:36;;;;;;;9.43;7.68;;;27.70;80.50;;;;;;5024992;28;20041;-76
2022/08/15 10:19:10;;;;;;;10.60;7.65;;;27.60;80.70;;;;;;5027808;28;20051;-77
2022/08/15 10:21:40;;;;;;;8.20;7.05;;;27.70;80.30;;;;;;5029899;28;20112;-74
2022/08/15 10:24:27;;;;;;;8.97;7.57;;;27.70;79.60;;;;;;5045702;28;20021;-77
2022/08/15 10:27:22;;;;;;;11.38;8.25;;;27.80;78.80;;;;;;5029357;28;20159;-75
2022/08/15 10:29:51;;;;;;;11.57;7.30;;;27.90;78.70;;;;;;5031668;28;20501;-78
2022/08/15 10:32:31;;;;;;;9.10;7.40;;;27.80;78.00;;;;;;5042468;28;20412;-75
2022/08/15 10:35:19;;;;;;;9.07;7.72;;;27.90;78.30;;;;;;5023812;28;20021;-76
2022/08/15 10:37:59;;;;;;;11.13;7.95;;;27.90;77.90;;;;;;5046751;28;20044;-76
2022/08/15 10:40:36;;;;;;;11.38;7.85;;;28.00;78.10;;;;;;5026314;28;20039;-75
2022/08/15 10:43:14;;;;;;;11.90;8.45;;;28.00;77.80;;;;;;5026652;28;20752;-77
2022/08/15 10:45:55;;;;;;;20.73;12.48;;;28.00;78.20;;;;;;5027376;28;20429;-73
2022/08/15 10:48:37;;;;;;;9.07;8.10;;;28.10;78.70;;;;;;5046542;28;20025;-77
2022/08/15 10:51:09;;;;;;;22.00;12.57;;;28.10;78.20;;;;;;5022756;28;20122;-76
2022/08/15 10:54:22;;;;;;;13.77;10.27;;;28.20;78.60;;;;;;5046596;28;20020;-75
2022/08/15 10:56:54;;;;;;;11.20;8.65;;;28.30;78.30;;;;;;4946170;28;20484;-77
2022/08/15 10:59:25;;;;;;;21.73;11.82;;;28.30;76.90;;;;;;5013226;28;20082;-76
2022/08/15 11:02:13;;;;;;;10.25;7.95;;;28.40;76.70;;;;;;5048355;28;20547;-75
2022/08/15 11:04:42;;;;;;;12.88;7.07;;;28.40;76.00;;;;;;5049021;28;20107;-76
2022/08/15 11:07:30;;;;;;;8.98;7.05;;;28.50;75.70;;;;;;5026955;28;20059;-76
2022/08/15 11:10:03;;;;;;;10.55;7.70;;;28.50;76.30;;;;;;5039295;28;20036;-78
2022/08/15 11:12:32;;;;;;;9.45;7.40;;;28.50;76.40;;;;;;5015547;28;20033;-78
2022/08/15 11:15:04;;;;;;;8.20;6.80;;;28.60;76.30;;;;;;5032898;28;20070;-74
2022/08/15 11:17:32;;;;;;;9.18;7.63;;;28.60;75.30;;;;;;5028171;28;20059;-77
2022/08/15 11:20:07;;;;;;;9.30;8.10;;;28.60;75.40;;;;;;5033044;28;20112;-78
2022/08/15 11:22:36;;;;;;;8.15;7.03;;;28.70;75.60;;;;;;5037548;28;20021;-78
2022/08/15 11:25:13;;;;;;;10.15;7.30;;;28.80;75.70;;;;;;5034977;28;20039;-79
2022/08/15 11:27:38;;;;;;;8.80;7.32;;;28.90;74.90;;;;;;5038325;28;20564;-81
2022/08/15 11:30:08;;;;;;;10.27;7.78;;;28.90;75.10;;;;;;5038538;28;20071;-79
2022/08/15 11:32:38;;;;;;;10.10;8.32;;;29.00;74.40;;;;;;5020300;28;20105;-78
2022/08/15 11:35:19;;;;;;;9.65;7.82;;;29.00;74.30;;;;;;5056269;28;20112;-77
2022/08/15 11:37:45;;;;;;;8.07;7.28;;;29.10;74.70;;;;;;5018583;28;20040;-76
2022/08/15 11:40:31;;;;;;;7.85;7.05;;;29.20;74.90;;;;;;5016719;28;20489;-77
2022/08/15 11:42:59;;;;;;;12.07;7.63;;;29.30;74.80;;;;;;5040704;28;20155;-78
2022/08/15 11:45:35;;;;;;;12.50;8.90;;;29.30;75.70;;;;;;5040828;28;20036;-80
2022/08/15 11:48:09;;;;;;;9.75;7.70;;;29.40;74.60;;;;;;5057484;28;20033;-78
2022/08/15 11:50:40;;;;;;;10.85;7.65;;;29.50;74.50;;;;;;5040328;28;20024;-79
2022/08/15 11:53:09;;;;;;;9.40;7.43;;;29.70;74.30;;;;;;5036057;28;20025;-77
2022/08/15 11:55:39;;;;;;;9.15;7.18;;;29.70;74.40;;;;;;5037146;28;20342;-78
2022/08/15 11:58:14;;;;;;;12.57;8.18;;;29.80;74.60;;;;;;5056241;28;20032;-77
2022/08/15 12:00:48;;;;;;;11.43;7.35;;;29.90;74.70;;;;;;5057820;28;20033;-79
2022/08/15 12:03:33;;;;;;;9.75;7.95;;;29.90;73.00;;;;;;5039395;28;20048;-78
2022/08/15 12:06:21;;;;;;;9.23;7.45;;;29.90;73.80;;;;;;5046576;28;20029;-77
2022/08/15 12:08:48;;;;;;;9.25;7.53;;;29.90;72.50;;;;;;5046916;28;20021;-77
2022/08/15 12:11:14;;;;;;;9.13;7.55;;;30.00;72.60;;;;;;5039526;28;20040;-79
2022/08/15 12:13:52;;;;;;;9.25;7.53;;;30.10;72.60;;;;;;5023534;28;20029;-79
2022/08/15 12:16:29;;;;;;;7.53;6.82;;;30.10;71.10;;;;;;5041115;28;20021;-78
2022/08/15 12:18:55;;;;;;;12.02;7.53;;;30.10;71.00;;;;;;5059491;28;20040;-77
2022/08/15 12:21:23;;;;;;;9.90;6.88;;;30.20;70.50;;;;;;5045065;28;20169;-77
2022/08/15 12:23:55;;;;;;;7.78;6.97;;;30.20;71.00;;;;;;5025567;28;20033;-77
2022/08/15 12:26:23;;;;;;;10.93;7.18;;;30.30;70.20;;;;;;5063195;28;20396;-78
2022/08/15 12:28:49;;;;;;;9.60;6.53;;;30.40;70.70;;;;;;5040751;28;20032;-78
2022/08/15 12:31:27;;;;;;;7.47;6.78;;;30.50;71.40;;;;;;5040018;28;20067;-78
2022/08/15 12:34:25;;;;;;;9.13;6.55;;;30.50;71.00;;;;;;5041696;28;20437;-80
2022/08/15 12:36:51;;;;;;;7.60;6.70;;;30.70;69.80;;;;;;5023761;28;20045;-79
2022/08/15 12:39:19;;;;;;;8.50;6.90;;;30.80;68.30;;;;;;5034677;28;20013;-78
2022/08/15 12:41:49;;;;;;;8.82;6.93;;;30.90;69.10;;;;;;5020541;28;20039;-80
2022/08/15 12:44:22;;;;;;;9.15;6.03;;;30.90;68.70;;;;;;5054532;28;20029;-79
2022/08/15 12:46:49;;;;;;;12.60;6.95;;;31.10;69.10;;;;;;5055967;28;20043;-79
2022/08/15 12:49:15;;;;;;;7.90;7.10;;;31.40;68.30;;;;;;5056944;28;20025;-79
2022/08/15 12:51:41;;;;;;;10.35;6.97;;;31.60;68.50;;;;;;5038780;28;20036;-78
2022/08/15 12:54:07;;;;;;;7.90;7.10;;;31.80;66.90;;;;;;5039320;28;20513;-78
2022/08/15 12:56:33;;;;;;;8.40;6.43;;;31.60;66.20;;;;;;5053742;28;20663;-79
2022/08/15 12:59:01;;;;;;;10.73;6.90;;;31.50;66.80;;;;;;5055608;28;20306;-79
2022/08/15 13:01:27;;;;;;;7.15;6.40;;;31.50;67.20;;;;;;5054035;28;20029;-79
2022/08/15 13:03:53;;;;;;;9.85;6.53;;;32.00;66.00;;;;;;5020617;28;20037;-75
2022/08/15 13:06:31;;;;;;;10.18;5.97;;;32.60;62.80;;;;;;5056942;28;20777;-76
2022/08/15 13:08:56;;;;;;;7.57;5.88;;;33.50;63.50;;;;;;5059566;28;20025;-78
2022/08/15 13:11:22;;;;;;;9.27;6.07;;;34.10;59.80;;;;;;5021038;28;20034;-77
2022/08/15 13:13:49;;;;;;;10.63;6.22;;;34.80;60.70;;;;;;5038538;28;20017;-79
2022/08/15 13:16:17;;;;;;;11.02;6.35;;;35.60;59.70;;;;;;5038598;28;20017;-77
2022/08/15 13:18:43;;;;;;;8.73;6.10;;;36.00;56.00;;;;;;5032733;28;20066;-79